sensor_id;sensor_type;location;lat;lon;timestamp;P1;durP1;ratioP1;P2;durP2;ratioP2
59207;SDS011;44977;53.132;6.408;2023-01-04T00:00:42;9.55;;;3.60;;
59207;SDS011;44977;53.132;6.408;2023-01-04T00:05:42;10.55;;;3.47;;
59207;SDS011;44977;53.132;6.408;2023-01-04T00:10:43;10.38;;;3.58;;
59207;SDS011;44977;53.132;6.408;2023-01-04T00:15:44;10.40;;;3.60;;
59207;SDS011;44977;53.132;6.408;2023-01-04T00:20:44;9.65;;;4.05;;
59207;SDS011;44977;53.132;6.408;2023-01-04T00:25:45;11.98;;;3.75;;
59207;SDS011;44977;53.132;6.408;2023-01-04T00:30:46;8.68;;;3.38;;
59207;SDS011;44977;53.132;6.408;2023-01-04T00:35:46;8.88;;;3.83;;
59207;SDS011;44977;53.132;6.408;2023-01-04T00:40:47;9.45;;;3.80;;
59207;SDS011;44977;53.132;6.408;2023-01-04T00:45:48;11.63;;;4.50;;
59207;SDS011;44977;53.132;6.408;2023-01-04T00:50:48;10.45;;;3.95;;
59207;SDS011;44977;53.132;6.408;2023-01-04T00:55:49;9.48;;;4.10;;
59207;SDS011;44977;53.132;6.408;2023-01-04T01:00:50;10.30;;;4.00;;
59207;SDS011;44977;53.132;6.408;2023-01-04T01:05:50;11.73;;;4.22;;
59207;SDS011;44977;53.132;6.408;2023-01-04T01:10:52;10.43;;;4.00;;
59207;SDS011;44977;53.132;6.408;2023-01-04T01:15:53;10.63;;;4.00;;
59207;SDS011;44977;53.132;6.408;2023-01-04T01:20:54;10.90;;;4.40;;
59207;SDS011;44977;53.132;6.408;2023-01-04T01:25:58;9.95;;;4.00;;
59207;SDS011;44977;53.132;6.408;2023-01-04T01:31:10;10.23;;;4.05;;
59207;SDS011;44977;53.132;6.408;2023-01-04T01:36:16;10.32;;;4.18;;
59207;SDS011;44977;53.132;6.408;2023-01-04T01:41:27;10.48;;;4.70;;
59207;SDS011;44977;53.132;6.408;2023-01-04T01:51:39;7.88;;;4.30;;
59207;SDS011;44977;53.132;6.408;2023-01-04T01:56:42;10.30;;;4.00;;
59207;SDS011;44977;53.132;6.408;2023-01-04T02:01:45;8.88;;;3.72;;
59207;SDS011;44977;53.132;6.408;2023-01-04T02:06:52;7.63;;;3.67;;
59207;SDS011;44977;53.132;6.408;2023-01-04T02:11:55;6.60;;;3.08;;
59207;SDS011;44977;53.132;6.408;2023-01-04T02:33:10;6.03;;;2.78;;
59207;SDS011;44977;53.132;6.408;2023-01-04T02:49:16;4.20;;;2.10;;
59207;SDS011;44977;53.132;6.408;2023-01-04T02:54:35;5.45;;;2.05;;
59207;SDS011;44977;53.132;6.408;2023-01-04T03:10:09;3.83;;;1.70;;
59207;SDS011;44977;53.132;6.408;2023-01-04T03:15:38;3.45;;;1.80;;
59207;SDS011;44977;53.132;6.408;2023-01-04T03:20:41;3.25;;;1.70;;
59207;SDS011;44977;53.132;6.408;2023-01-04T03:25:49;3.67;;;1.80;;
59207;SDS011;44977;53.132;6.408;2023-01-04T03:31:14;3.15;;;1.70;;
59207;SDS011;44977;53.132;6.408;2023-01-04T03:37:13;3.17;;;1.90;;
59207;SDS011;44977;53.132;6.408;2023-01-04T03:42:14;3.70;;;2.17;;
59207;SDS011;44977;53.132;6.408;2023-01-04T03:47:42;4.15;;;2.30;;
59207;SDS011;44977;53.132;6.408;2023-01-04T03:53:09;3.70;;;2.28;;
59207;SDS011;44977;53.132;6.408;2023-01-04T03:58:12;5.70;;;2.72;;
59207;SDS011;44977;53.132;6.408;2023-01-04T04:03:13;4.25;;;2.72;;
59207;SDS011;44977;53.132;6.408;2023-01-04T04:08:14;4.22;;;2.20;;
59207;SDS011;44977;53.132;6.408;2023-01-04T04:13:23;4.65;;;2.45;;
59207;SDS011;44977;53.132;6.408;2023-01-04T04:18:24;3.90;;;2.33;;
59207;SDS011;44977;53.132;6.408;2023-01-04T04:23:24;5.10;;;3.00;;
59207;SDS011;44977;53.132;6.408;2023-01-04T04:28:25;4.40;;;3.05;;
59207;SDS011;44977;53.132;6.408;2023-01-04T04:33:26;5.05;;;3.13;;
59207;SDS011;44977;53.132;6.408;2023-01-04T04:38:27;5.15;;;3.03;;
59207;SDS011;44977;53.132;6.408;2023-01-04T04:43:27;6.25;;;3.60;;
59207;SDS011;44977;53.132;6.408;2023-01-04T04:48:28;6.57;;;3.97;;
59207;SDS011;44977;53.132;6.408;2023-01-04T04:53:29;6.80;;;4.07;;
59207;SDS011;44977;53.132;6.408;2023-01-04T04:58:29;6.28;;;4.07;;
59207;SDS011;44977;53.132;6.408;2023-01-04T05:03:30;6.35;;;4.05;;
59207;SDS011;44977;53.132;6.408;2023-01-04T05:08:31;6.53;;;4.10;;
59207;SDS011;44977;53.132;6.408;2023-01-04T05:13:32;6.35;;;3.92;;
59207;SDS011;44977;53.132;6.408;2023-01-04T05:18:34;6.43;;;3.80;;
59207;SDS011;44977;53.132;6.408;2023-01-04T05:23:35;5.90;;;3.67;;
59207;SDS011;44977;53.132;6.408;2023-01-04T05:28:36;7.47;;;3.67;;
59207;SDS011;44977;53.132;6.408;2023-01-04T05:33:36;6.18;;;4.18;;
59207;SDS011;44977;53.132;6.408;2023-01-04T05:38:37;6.13;;;3.70;;
59207;SDS011;44977;53.132;6.408;2023-01-04T05:43:38;7.40;;;3.63;;
59207;SDS011;44977;53.132;6.408;2023-01-04T05:48:38;5.80;;;3.45;;
59207;SDS011;44977;53.132;6.408;2023-01-04T05:53:39;6.50;;;3.20;;
59207;SDS011;44977;53.132;6.408;2023-01-04T05:58:40;6.53;;;2.75;;
59207;SDS011;44977;53.132;6.408;2023-01-04T06:03:40;5.53;;;2.60;;
59207;SDS011;44977;53.132;6.408;2023-01-04T06:08:41;4.80;;;2.45;;
59207;SDS011;44977;53.132;6.408;2023-01-04T06:13:42;5.38;;;2.83;;
59207;SDS011;44977;53.132;6.408;2023-01-04T06:18:42;6.47;;;2.90;;
59207;SDS011;44977;53.132;6.408;2023-01-04T06:23:43;5.93;;;3.33;;
59207;SDS011;44977;53.132;6.408;2023-01-04T06:28:44;5.65;;;3.20;;
59207;SDS011;44977;53.132;6.408;2023-01-04T06:33:44;6.25;;;3.00;;
59207;SDS011;44977;53.132;6.408;2023-01-04T06:38:46;7.15;;;3.00;;
59207;SDS011;44977;53.132;6.408;2023-01-04T06:43:47;6.03;;;2.60;;
59207;SDS011;44977;53.132;6.408;2023-01-04T06:48:48;5.30;;;2.70;;
59207;SDS011;44977;53.132;6.408;2023-01-04T06:53:48;5.35;;;2.80;;
59207;SDS011;44977;53.132;6.408;2023-01-04T06:58:49;7.10;;;3.30;;
59207;SDS011;44977;53.132;6.408;2023-01-04T07:03:50;6.93;;;3.30;;
59207;SDS011;44977;53.132;6.408;2023-01-04T07:08:50;8.98;;;3.40;;
59207;SDS011;44977;53.132;6.408;2023-01-04T07:13:51;8.27;;;3.85;;
59207;SDS011;44977;53.132;6.408;2023-01-04T07:18:52;8.60;;;4.18;;
59207;SDS011;44977;53.132;6.408;2023-01-04T07:23:52;8.80;;;4.07;;
59207;SDS011;44977;53.132;6.408;2023-01-04T07:28:53;9.27;;;4.05;;
59207;SDS011;44977;53.132;6.408;2023-01-04T07:34:13;8.38;;;3.22;;
59207;SDS011;44977;53.132;6.408;2023-01-04T07:39:15;7.55;;;3.45;;
59207;SDS011;44977;53.132;6.408;2023-01-04T07:44:17;8.13;;;3.13;;
59207;SDS011;44977;53.132;6.408;2023-01-04T07:49:17;7.05;;;3.15;;
59207;SDS011;44977;53.132;6.408;2023-01-04T07:54:18;7.30;;;3.50;;
59207;SDS011;44977;53.132;6.408;2023-01-04T07:59:19;6.88;;;3.00;;
59207;SDS011;44977;53.132;6.408;2023-01-04T08:04:21;6.93;;;2.83;;
59207;SDS011;44977;53.132;6.408;2023-01-04T08:09:23;6.10;;;2.80;;
59207;SDS011;44977;53.132;6.408;2023-01-04T08:14:23;5.22;;;2.55;;
59207;SDS011;44977;53.132;6.408;2023-01-04T08:19:25;7.55;;;3.05;;
59207;SDS011;44977;53.132;6.408;2023-01-04T08:24:26;7.30;;;3.25;;
59207;SDS011;44977;53.132;6.408;2023-01-04T08:29:27;7.25;;;3.65;;
59207;SDS011;44977;53.132;6.408;2023-01-04T08:34:27;7.57;;;3.00;;
59207;SDS011;44977;53.132;6.408;2023-01-04T08:39:28;7.00;;;3.17;;
59207;SDS011;44977;53.132;6.408;2023-01-04T08:44:32;6.72;;;2.80;;
59207;SDS011;44977;53.132;6.408;2023-01-04T08:49:34;8.32;;;4.00;;
59207;SDS011;44977;53.132;6.408;2023-01-04T08:54:34;11.38;;;5.25;;
59207;SDS011;44977;53.132;6.408;2023-01-04T08:59:35;7.55;;;3.17;;
59207;SDS011;44977;53.132;6.408;2023-01-04T09:04:36;6.32;;;2.10;;
59207;SDS011;44977;53.132;6.408;2023-01-04T09:09:37;5.80;;;2.20;;
59207;SDS011;44977;53.132;6.408;2023-01-04T09:14:37;6.43;;;2.10;;
59207;SDS011;44977;53.132;6.408;2023-01-04T09:19:38;5.88;;;2.33;;
59207;SDS011;44977;53.132;6.408;2023-01-04T09:24:39;6.20;;;2.83;;
59207;SDS011;44977;53.132;6.408;2023-01-04T09:29:40;10.32;;;3.22;;
59207;SDS011;44977;53.132;6.408;2023-01-04T09:34:40;8.80;;;2.92;;
59207;SDS011;44977;53.132;6.408;2023-01-04T09:39:41;8.27;;;3.38;;
59207;SDS011;44977;53.132;6.408;2023-01-04T09:44:43;9.05;;;3.13;;
59207;SDS011;44977;53.132;6.408;2023-01-04T09:49:49;8.65;;;3.58;;
59207;SDS011;44977;53.132;6.408;2023-01-04T09:54:58;10.82;;;3.35;;
59207;SDS011;44977;53.132;6.408;2023-01-04T10:05:36;14.23;;;3.53;;
59207;SDS011;44977;53.132;6.408;2023-01-04T10:21:14;15.40;;;4.25;;
59207;SDS011;44977;53.132;6.408;2023-01-04T10:27:02;18.67;;;4.57;;
59207;SDS011;44977;53.132;6.408;2023-01-04T10:31:51;17.33;;;4.50;;
59207;SDS011;44977;53.132;6.408;2023-01-04T10:37:03;22.65;;;4.80;;
59207;SDS011;44977;53.132;6.408;2023-01-04T10:47:35;21.33;;;5.78;;
59207;SDS011;44977;53.132;6.408;2023-01-04T10:53:04;19.15;;;5.85;;
59207;SDS011;44977;53.132;6.408;2023-01-04T10:58:16;25.27;;;6.50;;
59207;SDS011;44977;53.132;6.408;2023-01-04T11:03:48;24.35;;;6.55;;
59207;SDS011;44977;53.132;6.408;2023-01-04T11:09:06;27.63;;;6.63;;
59207;SDS011;44977;53.132;6.408;2023-01-04T11:14:14;25.02;;;6.55;;
59207;SDS011;44977;53.132;6.408;2023-01-04T11:19:15;26.08;;;5.97;;
59207;SDS011;44977;53.132;6.408;2023-01-04T11:24:16;23.25;;;6.20;;
59207;SDS011;44977;53.132;6.408;2023-01-04T11:34:42;23.08;;;6.78;;
59207;SDS011;44977;53.132;6.408;2023-01-04T11:40:11;25.52;;;6.13;;
59207;SDS011;44977;53.132;6.408;2023-01-04T11:45:22;26.50;;;6.20;;
59207;SDS011;44977;53.132;6.408;2023-01-04T11:55:30;25.17;;;6.00;;
59207;SDS011;44977;53.132;6.408;2023-01-04T12:00:32;24.80;;;6.07;;
59207;SDS011;44977;53.132;6.408;2023-01-04T12:05:33;25.10;;;5.55;;
59207;SDS011;44977;53.132;6.408;2023-01-04T12:10:34;26.25;;;5.95;;
59207;SDS011;44977;53.132;6.408;2023-01-04T12:15:56;22.60;;;5.43;;
59207;SDS011;44977;53.132;6.408;2023-01-04T12:21:24;18.83;;;5.07;;
59207;SDS011;44977;53.132;6.408;2023-01-04T12:26:26;17.25;;;4.47;;
59207;SDS011;44977;53.132;6.408;2023-01-04T12:31:27;20.38;;;4.10;;
59207;SDS011;44977;53.132;6.408;2023-01-04T12:46:40;14.32;;;3.92;;
59207;SDS011;44977;53.132;6.408;2023-01-04T12:57:21;12.40;;;3.47;;
59207;SDS011;44977;53.132;6.408;2023-01-04T13:02:26;14.02;;;3.42;;
59207;SDS011;44977;53.132;6.408;2023-01-04T13:07:31;12.73;;;3.40;;
59207;SDS011;44977;53.132;6.408;2023-01-04T13:18:00;14.48;;;3.80;;
59207;SDS011;44977;53.132;6.408;2023-01-04T13:23:03;14.93;;;3.80;;
59207;SDS011;44977;53.132;6.408;2023-01-04T13:28:15;18.42;;;4.47;;
59207;SDS011;44977;53.132;6.408;2023-01-04T13:33:17;18.60;;;4.72;;
59207;SDS011;44977;53.132;6.408;2023-01-04T13:38:20;19.45;;;5.22;;
59207;SDS011;44977;53.132;6.408;2023-01-04T13:48:42;16.90;;;4.75;;
59207;SDS011;44977;53.132;6.408;2023-01-04T13:53:53;17.40;;;4.43;;
59207;SDS011;44977;53.132;6.408;2023-01-04T13:58:55;22.88;;;4.85;;
59207;SDS011;44977;53.132;6.408;2023-01-04T14:03:57;19.23;;;4.97;;
59207;SDS011;44977;53.132;6.408;2023-01-04T14:09:13;20.95;;;5.13;;
59207;SDS011;44977;53.132;6.408;2023-01-04T14:14:18;19.67;;;4.70;;
59207;SDS011;44977;53.132;6.408;2023-01-04T14:19:26;20.13;;;4.97;;
59207;SDS011;44977;53.132;6.408;2023-01-04T14:24:47;17.75;;;4.82;;
59207;SDS011;44977;53.132;6.408;2023-01-04T14:29:49;21.33;;;5.20;;
59207;SDS011;44977;53.132;6.408;2023-01-04T14:34:50;20.70;;;4.90;;
59207;SDS011;44977;53.132;6.408;2023-01-04T14:39:52;21.35;;;5.18;;
59207;SDS011;44977;53.132;6.408;2023-01-04T14:44:53;16.92;;;4.43;;
59207;SDS011;44977;53.132;6.408;2023-01-04T14:49:53;21.35;;;4.88;;
59207;SDS011;44977;53.132;6.408;2023-01-04T14:54:54;17.35;;;4.53;;
59207;SDS011;44977;53.132;6.408;2023-01-04T14:59:55;20.65;;;4.70;;
59207;SDS011;44977;53.132;6.408;2023-01-04T15:04:55;22.05;;;4.80;;
59207;SDS011;44977;53.132;6.408;2023-01-04T15:09:56;21.67;;;4.57;;
59207;SDS011;44977;53.132;6.408;2023-01-04T15:14:57;21.25;;;5.07;;
59207;SDS011;44977;53.132;6.408;2023-01-04T15:19:57;21.45;;;4.90;;
59207;SDS011;44977;53.132;6.408;2023-01-04T15:24:58;18.25;;;5.07;;
59207;SDS011;44977;53.132;6.408;2023-01-04T15:29:59;18.38;;;4.88;;
59207;SDS011;44977;53.132;6.408;2023-01-04T15:35:00;21.02;;;5.18;;
59207;SDS011;44977;53.132;6.408;2023-01-04T15:40:01;23.13;;;5.55;;
59207;SDS011;44977;53.132;6.408;2023-01-04T15:45:02;18.25;;;5.40;;
59207;SDS011;44977;53.132;6.408;2023-01-04T15:50:03;21.02;;;5.53;;
59207;SDS011;44977;53.132;6.408;2023-01-04T15:55:04;19.35;;;5.00;;
59207;SDS011;44977;53.132;6.408;2023-01-04T16:00:05;21.15;;;4.80;;
59207;SDS011;44977;53.132;6.408;2023-01-04T16:05:07;19.98;;;5.25;;
59207;SDS011;44977;53.132;6.408;2023-01-04T16:10:08;18.77;;;5.00;;
59207;SDS011;44977;53.132;6.408;2023-01-04T16:15:10;23.33;;;5.40;;
59207;SDS011;44977;53.132;6.408;2023-01-04T16:20:14;25.27;;;5.85;;
59207;SDS011;44977;53.132;6.408;2023-01-04T16:25:16;24.63;;;5.97;;
59207;SDS011;44977;53.132;6.408;2023-01-04T16:30:19;22.98;;;5.95;;
59207;SDS011;44977;53.132;6.408;2023-01-04T16:35:20;21.73;;;5.55;;
59207;SDS011;44977;53.132;6.408;2023-01-04T16:40:21;22.42;;;6.07;;
59207;SDS011;44977;53.132;6.408;2023-01-04T16:45:21;25.67;;;6.22;;
59207;SDS011;44977;53.132;6.408;2023-01-04T16:50:22;21.67;;;5.50;;
59207;SDS011;44977;53.132;6.408;2023-01-04T16:55:23;19.63;;;5.47;;
59207;SDS011;44977;53.132;6.408;2023-01-04T17:00:23;25.90;;;6.70;;
59207;SDS011;44977;53.132;6.408;2023-01-04T17:05:24;24.08;;;5.88;;
59207;SDS011;44977;53.132;6.408;2023-01-04T17:10:25;20.48;;;5.32;;
59207;SDS011;44977;53.132;6.408;2023-01-04T17:15:25;22.52;;;6.07;;
59207;SDS011;44977;53.132;6.408;2023-01-04T17:20:26;23.02;;;5.13;;
59207;SDS011;44977;53.132;6.408;2023-01-04T17:25:27;24.40;;;6.10;;
59207;SDS011;44977;53.132;6.408;2023-01-04T17:30:27;24.73;;;5.53;;
59207;SDS011;44977;53.132;6.408;2023-01-04T17:35:28;28.48;;;6.10;;
59207;SDS011;44977;53.132;6.408;2023-01-04T17:40:29;21.63;;;5.43;;
59207;SDS011;44977;53.132;6.408;2023-01-04T17:45:30;21.92;;;5.30;;
59207;SDS011;44977;53.132;6.408;2023-01-04T17:50:31;21.38;;;5.47;;
59207;SDS011;44977;53.132;6.408;2023-01-04T17:55:32;28.60;;;6.90;;
59207;SDS011;44977;53.132;6.408;2023-01-04T18:00:33;23.02;;;6.25;;
59207;SDS011;44977;53.132;6.408;2023-01-04T18:05:34;22.25;;;5.97;;
59207;SDS011;44977;53.132;6.408;2023-01-04T18:10:35;22.50;;;6.53;;
59207;SDS011;44977;53.132;6.408;2023-01-04T18:15:35;23.00;;;5.25;;
59207;SDS011;44977;53.132;6.408;2023-01-04T18:20:36;24.60;;;6.00;;
59207;SDS011;44977;53.132;6.408;2023-01-04T18:25:37;24.65;;;6.18;;
59207;SDS011;44977;53.132;6.408;2023-01-04T18:30:37;21.52;;;5.18;;
59207;SDS011;44977;53.132;6.408;2023-01-04T18:35:38;22.98;;;5.78;;
59207;SDS011;44977;53.132;6.408;2023-01-04T18:40:39;21.10;;;5.15;;
59207;SDS011;44977;53.132;6.408;2023-01-04T18:45:39;23.88;;;5.63;;
59207;SDS011;44977;53.132;6.408;2023-01-04T18:50:40;22.92;;;5.75;;
59207;SDS011;44977;53.132;6.408;2023-01-04T18:55:41;24.33;;;5.78;;
59207;SDS011;44977;53.132;6.408;2023-01-04T19:00:41;24.20;;;6.05;;
59207;SDS011;44977;53.132;6.408;2023-01-04T19:05:42;22.50;;;5.68;;
59207;SDS011;44977;53.132;6.408;2023-01-04T19:10:43;21.95;;;5.68;;
59207;SDS011;44977;53.132;6.408;2023-01-04T19:15:44;22.67;;;5.70;;
59207;SDS011;44977;53.132;6.408;2023-01-04T19:20:44;22.30;;;5.53;;
59207;SDS011;44977;53.132;6.408;2023-01-04T19:25:45;21.60;;;5.55;;
59207;SDS011;44977;53.132;6.408;2023-01-04T19:30:46;21.85;;;6.03;;
59207;SDS011;44977;53.132;6.408;2023-01-04T19:35:47;24.38;;;6.20;;
59207;SDS011;44977;53.132;6.408;2023-01-04T19:40:54;23.55;;;6.00;;
59207;SDS011;44977;53.132;6.408;2023-01-04T19:45:56;22.13;;;5.88;;
59207;SDS011;44977;53.132;6.408;2023-01-04T19:56:07;23.33;;;5.63;;
59207;SDS011;44977;53.132;6.408;2023-01-04T20:01:16;23.23;;;5.95;;
59207;SDS011;44977;53.132;6.408;2023-01-04T20:06:18;21.70;;;6.22;;
59207;SDS011;44977;53.132;6.408;2023-01-04T20:11:19;29.45;;;6.72;;
59207;SDS011;44977;53.132;6.408;2023-01-04T20:16:19;30.05;;;6.30;;
59207;SDS011;44977;53.132;6.408;2023-01-04T20:21:20;22.27;;;6.10;;
59207;SDS011;44977;53.132;6.408;2023-01-04T20:26:21;25.10;;;5.70;;
59207;SDS011;44977;53.132;6.408;2023-01-04T20:31:22;29.23;;;6.10;;
59207;SDS011;44977;53.132;6.408;2023-01-04T20:36:23;30.77;;;6.88;;
59207;SDS011;44977;53.132;6.408;2023-01-04T20:41:30;27.25;;;6.32;;
59207;SDS011;44977;53.132;6.408;2023-01-04T20:46:31;25.92;;;6.72;;
59207;SDS011;44977;53.132;6.408;2023-01-04T20:51:32;27.73;;;6.03;;
59207;SDS011;44977;53.132;6.408;2023-01-04T20:56:33;23.70;;;6.18;;
59207;SDS011;44977;53.132;6.408;2023-01-04T21:01:36;28.38;;;6.38;;
59207;SDS011;44977;53.132;6.408;2023-01-04T21:06:37;23.10;;;6.18;;
59207;SDS011;44977;53.132;6.408;2023-01-04T21:11:37;24.95;;;5.72;;
59207;SDS011;44977;53.132;6.408;2023-01-04T21:16:38;29.65;;;7.80;;
59207;SDS011;44977;53.132;6.408;2023-01-04T21:21:40;29.92;;;7.38;;
59207;SDS011;44977;53.132;6.408;2023-01-04T21:26:41;24.10;;;6.25;;
59207;SDS011;44977;53.132;6.408;2023-01-04T21:31:42;22.63;;;5.78;;
59207;SDS011;44977;53.132;6.408;2023-01-04T21:36:42;26.02;;;6.28;;
59207;SDS011;44977;53.132;6.408;2023-01-04T21:41:43;24.33;;;6.20;;
59207;SDS011;44977;53.132;6.408;2023-01-04T21:46:46;25.13;;;6.82;;
59207;SDS011;44977;53.132;6.408;2023-01-04T21:51:46;25.85;;;6.50;;
59207;SDS011;44977;53.132;6.408;2023-01-04T21:56:47;24.58;;;5.95;;
59207;SDS011;44977;53.132;6.408;2023-01-04T22:01:48;27.35;;;5.95;;
59207;SDS011;44977;53.132;6.408;2023-01-04T22:06:49;24.98;;;6.13;;
59207;SDS011;44977;53.132;6.408;2023-01-04T22:11:49;24.17;;;6.68;;
59207;SDS011;44977;53.132;6.408;2023-01-04T22:16:50;27.88;;;6.55;;
59207;SDS011;44977;53.132;6.408;2023-01-04T22:21:51;24.23;;;6.68;;
59207;SDS011;44977;53.132;6.408;2023-01-04T22:26:51;26.85;;;5.65;;
59207;SDS011;44977;53.132;6.408;2023-01-04T22:31:52;23.00;;;6.03;;
59207;SDS011;44977;53.132;6.408;2023-01-04T22:36:53;29.40;;;6.10;;
59207;SDS011;44977;53.132;6.408;2023-01-04T22:41:53;24.73;;;6.35;;
59207;SDS011;44977;53.132;6.408;2023-01-04T22:46:54;25.20;;;5.88;;
59207;SDS011;44977;53.132;6.408;2023-01-04T22:51:55;23.73;;;6.00;;
59207;SDS011;44977;53.132;6.408;2023-01-04T22:56:56;23.42;;;5.32;;
59207;SDS011;44977;53.132;6.408;2023-01-04T23:01:57;24.50;;;6.03;;
59207;SDS011;44977;53.132;6.408;2023-01-04T23:06:58;23.27;;;5.35;;
59207;SDS011;44977;53.132;6.408;2023-01-04T23:11:58;29.58;;;6.15;;
59207;SDS011;44977;53.132;6.408;2023-01-04T23:16:59;22.70;;;5.32;;
59207;SDS011;44977;53.132;6.408;2023-01-04T23:22:00;25.85;;;5.88;;
59207;SDS011;44977;53.132;6.408;2023-01-04T23:27:00;23.92;;;5.70;;
59207;SDS011;44977;53.132;6.408;2023-01-04T23:32:01;21.65;;;6.40;;
59207;SDS011;44977;53.132;6.408;2023-01-04T23:37:02;24.35;;;6.13;;
59207;SDS011;44977;53.132;6.408;2023-01-04T23:42:03;24.55;;;5.90;;
59207;SDS011;44977;53.132;6.408;2023-01-04T23:47:04;21.35;;;5.57;;
59207;SDS011;44977;53.132;6.408;2023-01-04T23:52:06;24.30;;;5.35;;
59207;SDS011;44977;53.132;6.408;2023-01-04T23:57:07;24.92;;;6.00;;
